createdAt,value
2022-11-27T00:01:32.480Z,1.33
2022-11-27T00:04:00.084Z,0.85
2022-11-27T00:06:29.664Z,1.30
2022-11-27T00:08:59.153Z,2.55
2022-11-27T00:11:28.532Z,1.17
2022-11-27T00:13:56.618Z,2.10
2022-11-27T00:16:25.048Z,1.80
2022-11-27T00:18:53.127Z,0.43
2022-11-27T00:21:25.323Z,1.05
2022-11-27T00:23:54.375Z,1.35
2022-11-27T00:26:22.388Z,1.98
2022-11-27T00:28:50.412Z,2.10
2022-11-27T00:31:23.968Z,1.38
2022-11-27T00:33:54.711Z,1.75
2022-11-27T00:36:22.691Z,0.93
2022-11-27T00:38:50.515Z,1.27
2022-11-27T00:41:23.403Z,3.38
2022-11-27T00:43:52.260Z,2.35
2022-11-27T00:46:28.848Z,1.40
2022-11-27T00:48:58.248Z,1.10
2022-11-27T00:51:26.716Z,2.23
2022-11-27T00:53:55.001Z,2.47
2022-11-27T00:56:27.880Z,3.10
2022-11-27T00:58:56.266Z,1.10
2022-11-27T01:01:30.101Z,1.40
2022-11-27T01:03:59.358Z,1.80
2022-11-27T01:06:28.315Z,1.58
2022-11-27T01:08:57.123Z,1.58
2022-11-27T01:11:28.625Z,2.00
2022-11-27T01:13:58.412Z,1.80
2022-11-27T01:16:27.798Z,2.75
2022-11-27T01:18:57.904Z,2.08
2022-11-27T01:23:55.031Z,2.70
2022-11-27T01:26:23.006Z,1.20
2022-11-27T01:28:57.962Z,1.70
2022-11-27T01:31:29.613Z,4.32
2022-11-27T01:34:03.221Z,3.22
2022-11-27T01:36:32.155Z,2.08
2022-11-27T01:39:00.135Z,6.18
2022-11-27T01:41:36.698Z,3.72
2022-11-27T01:44:24.476Z,3.38
2022-11-27T01:47:00.081Z,2.47
2022-11-27T01:49:59.965Z,2.67
2022-11-27T01:52:36.296Z,4.22
2022-11-27T01:55:40.647Z,5.47
2022-11-27T01:58:13.747Z,4.45
2022-11-27T02:00:41.622Z,5.32
2022-11-27T02:03:09.959Z,3.28
2022-11-27T02:05:37.827Z,3.00
2022-11-27T02:08:11.844Z,4.45
2022-11-27T02:10:58.229Z,5.47
2022-11-27T02:13:49.034Z,4.15
2022-11-27T02:16:50.495Z,5.30
2022-11-27T02:19:27.476Z,4.60
2022-11-27T02:22:07.480Z,4.45
2022-11-27T02:27:25.232Z,3.10
2022-11-27T02:29:58.105Z,4.75
2022-11-27T02:32:53.365Z,4.80
2022-11-27T02:35:26.429Z,6.63
2022-11-27T02:37:59.584Z,6.32
2022-11-27T02:40:50.143Z,2.95
2022-11-27T02:43:48.848Z,5.03
2022-11-27T02:46:18.947Z,8.95
2022-11-27T02:51:31.229Z,6.72
2022-11-27T02:54:03.284Z,5.60
2022-11-27T02:56:31.977Z,5.68
2022-11-27T02:59:03.389Z,3.13
2022-11-27T03:01:36.465Z,7.55
2022-11-27T03:04:08.770Z,7.30
2022-11-27T03:06:54.059Z,6.05
2022-11-27T03:09:49.376Z,9.25
2022-11-27T03:12:18.567Z,10.18
2022-11-27T03:14:47.621Z,13.37
2022-11-27T03:17:51.923Z,14.10
2022-11-27T03:20:36.778Z,16.70
2022-11-27T03:23:04.360Z,22.35
2022-11-27T03:25:32.082Z,29.27
2022-11-27T03:28:03.049Z,21.90
2022-11-27T03:30:30.702Z,26.38
2022-11-27T03:32:58.627Z,23.38
2022-11-27T03:35:27.656Z,18.20
2022-11-27T03:37:56.584Z,18.33
2022-11-27T03:40:56.509Z,30.88
2022-11-27T03:43:27.772Z,31.13
2022-11-27T03:45:59.502Z,32.25
2022-11-27T03:48:43.520Z,30.70
2022-11-27T03:51:39.136Z,31.15
2022-11-27T03:54:45.777Z,33.30
2022-11-27T03:57:21.885Z,20.40
2022-11-27T03:59:52.724Z,36.00
2022-11-27T04:02:40.200Z,35.50
2022-11-27T04:05:08.461Z,27.50
2022-11-27T04:07:36.122Z,27.98
2022-11-27T04:10:04.823Z,26.60
2022-11-27T04:12:32.463Z,22.35
2022-11-27T04:15:00.429Z,38.40
2022-11-27T04:17:28.208Z,17.33
2022-11-27T04:19:55.776Z,30.50
2022-11-27T04:22:23.395Z,30.48
2022-11-27T04:24:51.317Z,37.55
2022-11-27T04:27:18.869Z,37.35
2022-11-27T04:29:46.423Z,30.35
2022-11-27T04:32:14.215Z,45.15
2022-11-27T04:34:41.944Z,26.27
2022-11-27T04:37:09.694Z,33.15
2022-11-27T04:39:37.247Z,33.88
2022-11-27T04:42:04.897Z,39.30
2022-11-27T04:44:32.407Z,35.22
2022-11-27T04:46:59.995Z,28.67
2022-11-27T04:49:27.589Z,36.30
2022-11-27T04:51:55.078Z,29.77
2022-11-27T04:54:23.028Z,34.92
2022-11-27T04:56:50.412Z,24.92
2022-11-27T04:59:18.007Z,28.00
2022-11-27T05:01:45.470Z,37.30
2022-11-27T05:04:13.041Z,31.88
2022-11-27T05:06:40.678Z,39.42
2022-11-27T05:09:08.306Z,39.83
2022-11-27T05:11:35.892Z,40.95
2022-11-27T05:14:16.695Z,49.90
2022-11-27T05:16:54.138Z,36.40
2022-11-27T05:19:23.838Z,26.90
2022-11-27T05:21:52.204Z,28.67
2022-11-27T05:24:21.333Z,38.05
2022-11-27T05:26:49.021Z,31.42
2022-11-27T05:29:16.715Z,41.78
2022-11-27T05:31:44.352Z,48.13
2022-11-27T05:34:12.104Z,37.97
2022-11-27T05:36:40.444Z,59.60
2022-11-27T05:39:09.049Z,41.75
2022-11-27T05:41:37.965Z,41.42
2022-11-27T05:44:06.136Z,38.08
2022-11-27T05:46:33.911Z,39.83
2022-11-27T05:49:01.482Z,37.33
2022-11-27T05:51:28.948Z,61.83
2022-11-27T05:53:56.509Z,45.45
2022-11-27T05:56:24.053Z,50.50
2022-11-27T05:58:52.149Z,41.85
2022-11-27T06:01:20.132Z,42.33
2022-11-27T06:03:47.971Z,43.33
2022-11-27T06:06:18.760Z,36.22
2022-11-27T06:08:47.726Z,37.28
2022-11-27T06:11:23.467Z,44.90
2022-11-27T06:13:51.650Z,26.98
2022-11-27T06:16:21.543Z,44.78
2022-11-27T06:18:51.231Z,43.65
2022-11-27T06:21:20.009Z,50.95
2022-11-27T06:23:47.751Z,28.80
2022-11-27T06:26:17.421Z,49.45
2022-11-27T06:28:46.529Z,35.13
2022-11-27T06:31:18.249Z,42.13
2022-11-27T06:33:47.635Z,38.85
2022-11-27T06:36:15.796Z,39.40
2022-11-27T06:38:44.624Z,49.40
2022-11-27T06:41:15.194Z,35.33
2022-11-27T06:43:43.576Z,40.35
2022-11-27T06:46:17.474Z,41.65
2022-11-27T06:48:47.084Z,43.35
2022-11-27T06:51:22.901Z,36.45
2022-11-27T06:53:51.797Z,45.17
2022-11-27T06:56:22.371Z,47.25
2022-11-27T06:58:54.923Z,39.15
2022-11-27T07:01:24.402Z,43.17
2022-11-27T07:03:52.223Z,44.33
2022-11-27T07:06:24.477Z,46.20
2022-11-27T07:08:53.924Z,52.47
2022-11-27T07:11:24.812Z,50.05
2022-11-27T07:13:54.472Z,34.60
2022-11-27T07:16:22.200Z,34.30
2022-11-27T07:18:52.331Z,37.72
2022-11-27T07:23:47.732Z,45.78
2022-11-27T07:26:21.030Z,44.75
2022-11-27T07:28:49.089Z,43.72
2022-11-27T07:31:22.936Z,39.38
2022-11-27T07:33:52.570Z,41.90
2022-11-27T07:36:23.381Z,41.72
2022-11-27T07:38:51.926Z,29.27
2022-11-27T07:41:19.633Z,52.10
2022-11-27T07:43:47.702Z,32.83
2022-11-27T07:46:18.872Z,50.63
2022-11-27T07:48:46.954Z,43.47
2022-11-27T07:51:17.259Z,42.22
2022-11-27T07:53:45.322Z,40.95
2022-11-27T07:56:14.886Z,42.35
2022-11-27T07:58:42.522Z,51.47
2022-11-27T08:01:16.405Z,36.70
2022-11-27T08:03:44.421Z,39.50
2022-11-27T08:06:21.547Z,46.42
2022-11-27T08:08:49.997Z,36.08
2022-11-27T08:11:24.317Z,39.45
2022-11-27T08:14:00.814Z,31.90
2022-11-27T08:16:29.422Z,32.03
2022-11-27T08:18:57.310Z,36.85
2022-11-27T08:21:25.314Z,48.72
2022-11-27T08:23:53.161Z,42.20
2022-11-27T08:26:21.308Z,39.35
2022-11-27T08:28:51.840Z,40.90
2022-11-27T08:31:20.911Z,33.53
2022-11-27T08:33:48.961Z,33.65
2022-11-27T08:36:18.286Z,48.83
2022-11-27T08:38:46.932Z,35.40
2022-11-27T08:41:14.939Z,35.30
2022-11-27T08:43:42.791Z,31.17
2022-11-27T08:46:11.072Z,34.08
2022-11-27T08:48:38.702Z,36.05
2022-11-27T08:51:08.483Z,37.63
2022-11-27T08:53:37.728Z,35.35
2022-11-27T08:56:07.429Z,34.10
2022-11-27T08:58:35.448Z,35.33
2022-11-27T09:01:18.816Z,43.13
2022-11-27T09:03:47.492Z,40.38
2022-11-27T09:06:18.669Z,31.35
2022-11-27T09:08:46.235Z,46.53
2022-11-27T09:11:16.007Z,26.05
2022-11-27T09:13:44.764Z,29.73
2022-11-27T09:16:17.512Z,33.85
2022-11-27T09:18:46.900Z,33.78
2022-11-27T09:21:16.126Z,32.67
2022-11-27T09:23:44.036Z,40.00
2022-11-27T09:26:14.286Z,42.97
2022-11-27T09:28:42.749Z,42.05
2022-11-27T09:31:11.946Z,35.42
2022-11-27T09:33:41.298Z,28.58
2022-11-27T09:36:14.501Z,30.05
2022-11-27T09:38:42.770Z,37.65
2022-11-27T09:41:27.696Z,35.67
2022-11-27T09:44:00.378Z,43.38
2022-11-27T09:46:41.770Z,33.42
2022-11-27T09:49:22.583Z,36.65
2022-11-27T09:51:53.894Z,31.55
2022-11-27T09:54:30.492Z,40.85
2022-11-27T09:56:58.734Z,39.03
2022-11-27T09:59:38.999Z,34.72
2022-11-27T10:02:18.103Z,41.60
2022-11-27T10:05:12.343Z,52.10
2022-11-27T10:07:46.821Z,39.33
2022-11-27T10:10:20.266Z,37.03
2022-11-27T10:13:16.104Z,43.90
2022-11-27T10:16:14.927Z,40.83
2022-11-27T10:18:48.549Z,41.33
2022-11-27T10:21:27.481Z,39.95
2022-11-27T10:24:18.281Z,32.22
2022-11-27T10:26:50.503Z,41.63
2022-11-27T10:29:37.707Z,35.38
2022-11-27T10:32:53.464Z,37.85
2022-11-27T10:35:16.420Z,44.28
2022-11-27T10:37:49.120Z,41.47
2022-11-27T10:40:25.209Z,44.85
2022-11-27T10:43:04.784Z,46.72
2022-11-27T10:45:45.459Z,61.08
2022-11-27T10:48:13.690Z,43.35
2022-11-27T10:50:42.460Z,41.03
2022-11-27T10:53:16.184Z,39.38
2022-11-27T10:56:05.060Z,46.33
2022-11-27T10:58:43.321Z,25.17
2022-11-27T11:01:14.594Z,31.42
2022-11-27T11:03:42.317Z,40.53
2022-11-27T11:06:30.595Z,44.00
2022-11-27T11:09:23.418Z,31.73
2022-11-27T11:11:51.526Z,44.08
2022-11-27T11:14:20.465Z,39.47
2022-11-27T11:16:48.968Z,40.90
2022-11-27T11:19:37.810Z,47.00
2022-11-27T11:22:14.803Z,58.10
2022-11-27T11:24:49.026Z,35.20
2022-11-27T11:27:27.788Z,37.22
2022-11-27T11:30:20.252Z,35.85
2022-11-27T11:32:49.380Z,31.77
2022-11-27T11:35:36.596Z,38.17
2022-11-27T11:38:06.171Z,40.38
2022-11-27T11:40:36.339Z,50.67
2022-11-27T11:43:33.167Z,49.15
2022-11-27T11:46:24.021Z,40.00
2022-11-27T11:49:02.543Z,41.75
2022-11-27T11:51:42.602Z,36.35
2022-11-27T11:56:52.447Z,36.10
2022-11-27T11:59:37.573Z,58.78
2022-11-27T12:02:50.235Z,40.25
2022-11-27T12:06:15.181Z,39.63
2022-11-27T12:09:08.658Z,37.13
2022-11-27T12:11:50.132Z,46.13
2022-11-27T12:14:42.702Z,51.13
2022-11-27T12:17:35.976Z,40.25
2022-11-27T12:20:03.663Z,41.95
2022-11-27T12:22:31.129Z,45.60
2022-11-27T12:25:04.696Z,41.00
2022-11-27T12:27:38.227Z,35.72
2022-11-27T12:30:27.652Z,37.40
2022-11-27T12:33:20.414Z,41.60
2022-11-27T12:36:26.741Z,44.10
2022-11-27T12:39:39.530Z,40.92
2022-11-27T12:42:33.568Z,40.30
2022-11-27T12:45:21.155Z,40.63
2022-11-27T12:48:11.467Z,42.92
2022-11-27T12:50:47.977Z,42.55
2022-11-27T12:53:38.782Z,36.58
2022-11-27T12:56:21.081Z,34.80
2022-11-27T12:59:02.377Z,37.67
2022-11-27T13:01:35.168Z,45.80
2022-11-27T13:04:21.788Z,38.75
2022-11-27T13:07:08.866Z,37.60
2022-11-27T13:09:50.810Z,40.50
2022-11-27T13:12:38.279Z,44.75
2022-11-27T13:15:20.983Z,42.55
2022-11-27T13:17:56.595Z,34.95
2022-11-27T13:20:32.414Z,39.72
2022-11-27T13:22:59.982Z,31.05
2022-11-27T13:25:30.378Z,40.03
2022-11-27T13:27:59.583Z,43.75
2022-11-27T13:30:33.010Z,37.87
2022-11-27T13:33:03.773Z,49.13
2022-11-27T13:35:38.753Z,38.63
2022-11-27T13:38:21.017Z,46.20
2022-11-27T13:40:52.591Z,34.22
2022-11-27T13:43:40.530Z,33.78
2022-11-27T13:46:29.586Z,40.50
2022-11-27T13:49:03.627Z,43.85
2022-11-27T13:51:32.643Z,46.38
2022-11-27T13:54:17.135Z,34.85
2022-11-27T13:56:44.743Z,32.58
2022-11-27T13:59:20.963Z,41.03
2022-11-27T14:02:05.222Z,39.08
2022-11-27T14:04:34.005Z,49.20
2022-11-27T14:07:07.146Z,37.55
2022-11-27T14:09:43.111Z,39.47
2022-11-27T14:12:30.409Z,26.73
2022-11-27T14:15:08.829Z,34.38
2022-11-27T14:17:40.633Z,44.90
2022-11-27T14:20:17.500Z,36.25
2022-11-27T14:23:10.657Z,34.83
2022-11-27T14:25:38.434Z,39.80
2022-11-27T14:28:26.454Z,37.65
2022-11-27T14:30:57.196Z,35.10
2022-11-27T14:33:27.608Z,44.83
2022-11-27T14:36:00.344Z,34.72
2022-11-27T14:38:30.007Z,38.20
2022-11-27T14:41:09.764Z,39.75
2022-11-27T14:43:37.441Z,37.88
2022-11-27T14:46:06.132Z,34.60
2022-11-27T14:48:56.947Z,39.85
2022-11-27T14:51:29.719Z,30.65
2022-11-27T14:54:07.721Z,45.22
2022-11-27T14:56:37.607Z,43.40
2022-11-27T14:59:06.677Z,49.60
2022-11-27T15:01:37.050Z,38.27
2022-11-27T15:04:28.757Z,43.42
2022-11-27T15:06:58.954Z,45.08
2022-11-27T15:09:32.368Z,35.03
2022-11-27T15:12:18.878Z,42.45
2022-11-27T15:14:56.267Z,42.97
2022-11-27T15:17:32.858Z,46.50
2022-11-27T15:20:02.624Z,47.20
2022-11-27T15:24:59.903Z,44.03
2022-11-27T15:27:47.042Z,39.95
2022-11-27T15:30:18.605Z,35.03
2022-11-27T15:32:51.933Z,39.53
2022-11-27T15:35:35.388Z,33.15
2022-11-27T15:38:10.777Z,41.78
2022-11-27T15:40:41.182Z,31.40
2022-11-27T15:43:16.260Z,42.92
2022-11-27T15:45:44.711Z,43.58
2022-11-27T15:48:16.035Z,47.53
2022-11-27T15:50:49.856Z,31.13
2022-11-27T15:53:19.186Z,34.05
2022-11-27T15:55:46.808Z,35.65
2022-11-27T15:58:15.416Z,43.80
2022-11-27T16:00:43.389Z,42.63
2022-11-27T16:03:10.945Z,43.85
2022-11-27T16:05:38.496Z,43.15
2022-11-27T16:08:07.770Z,35.92
2022-11-27T16:10:35.310Z,38.58
2022-11-27T16:13:02.940Z,35.97
2022-11-27T16:15:33.163Z,54.13
2022-11-27T16:18:01.587Z,40.45
2022-11-27T16:20:28.996Z,48.42
2022-11-27T16:22:56.800Z,49.67
2022-11-27T16:25:25.426Z,43.25
2022-11-27T16:27:56.674Z,41.70
2022-11-27T16:30:27.027Z,37.20
2022-11-27T16:32:54.716Z,38.15
2022-11-27T16:35:24.970Z,33.13
2022-11-27T16:37:53.036Z,50.90
2022-11-27T16:40:20.676Z,41.83
2022-11-27T16:42:49.349Z,59.25
2022-11-27T16:45:18.647Z,42.92
2022-11-27T16:47:46.544Z,40.67
2022-11-27T16:50:14.236Z,70.50
2022-11-27T16:52:44.757Z,50.05
2022-11-27T16:55:14.953Z,48.75
2022-11-27T16:57:42.597Z,56.33
2022-11-27T17:00:10.605Z,41.88
2022-11-27T17:02:38.292Z,49.28
2022-11-27T17:05:06.641Z,48.47
2022-11-27T17:07:34.556Z,45.85
2022-11-27T17:10:02.721Z,43.35
2022-11-27T17:12:33.426Z,42.45
2022-11-27T17:15:03.632Z,49.88
2022-11-27T17:17:36.824Z,44.05
2022-11-27T17:20:07.902Z,56.97
2022-11-27T17:22:35.468Z,40.90
2022-11-27T17:25:05.220Z,60.85
2022-11-27T17:27:34.228Z,39.70
2022-11-27T17:32:30.594Z,50.10
2022-11-27T17:34:58.190Z,48.55
2022-11-27T17:37:25.745Z,59.42
2022-11-27T17:39:53.452Z,49.60
2022-11-27T17:42:22.879Z,48.45
2022-11-27T17:44:51.628Z,57.53
2022-11-27T17:47:19.565Z,48.55
2022-11-27T17:49:47.230Z,63.80
2022-11-27T17:52:14.832Z,52.03
2022-11-27T17:54:43.442Z,52.25
2022-11-27T17:57:11.027Z,50.85
2022-11-27T17:59:40.102Z,50.45
2022-11-27T18:02:09.525Z,41.90
2022-11-27T18:04:37.920Z,55.78
2022-11-27T18:07:05.590Z,45.75
2022-11-27T18:09:33.164Z,41.17
2022-11-27T18:12:00.705Z,49.05
2022-11-27T18:14:30.025Z,50.80
2022-11-27T18:17:04.297Z,58.83
2022-11-27T18:19:32.637Z,64.07
2022-11-27T18:22:00.392Z,84.95
2022-11-27T18:24:28.334Z,62.35
2022-11-27T18:27:11.547Z,76.93
2022-11-27T18:29:42.626Z,74.63
2022-11-27T18:32:11.960Z,60.00
2022-11-27T18:34:40.804Z,59.27
2022-11-27T18:37:08.775Z,58.10
2022-11-27T18:39:37.842Z,58.67
2022-11-27T18:42:06.736Z,48.40
2022-11-27T18:44:37.287Z,59.10
2022-11-27T18:47:10.969Z,58.95
2022-11-27T18:49:41.706Z,53.97
2022-11-27T18:52:10.533Z,44.88
2022-11-27T18:54:38.571Z,60.67
2022-11-27T18:57:07.792Z,48.97
2022-11-27T18:59:35.725Z,59.42
2022-11-27T19:02:04.311Z,51.58
2022-11-27T19:04:34.338Z,52.90
2022-11-27T19:07:01.921Z,56.97
2022-11-27T19:09:29.555Z,46.28
2022-11-27T19:11:57.286Z,52.65
2022-11-27T19:14:24.788Z,54.60
2022-11-27T19:16:52.919Z,44.33
2022-11-27T19:22:11.314Z,46.95
2022-11-27T19:24:40.754Z,62.33
2022-11-27T19:27:08.703Z,41.35
2022-11-27T19:29:36.266Z,45.38
2022-11-27T19:32:04.135Z,37.97
2022-11-27T19:34:31.849Z,48.45
2022-11-27T19:36:59.578Z,46.47
2022-11-27T19:39:27.966Z,46.30
2022-11-27T19:41:58.033Z,50.75
2022-11-27T19:44:26.276Z,56.58
2022-11-27T19:46:54.030Z,54.45
2022-11-27T19:49:21.945Z,53.28
2022-11-27T19:51:49.894Z,62.58
2022-11-27T19:54:20.598Z,45.42
2022-11-27T19:56:49.667Z,55.65
2022-11-27T19:59:22.903Z,48.63
2022-11-27T20:01:54.565Z,48.28
2022-11-27T20:04:27.078Z,52.20
2022-11-27T20:06:55.211Z,45.15
2022-11-27T20:09:23.669Z,67.13
2022-11-27T20:11:52.514Z,44.05
2022-11-27T20:14:20.940Z,50.53
2022-11-27T20:16:48.939Z,52.28
2022-11-27T20:19:17.290Z,47.85
2022-11-27T20:21:45.993Z,48.38
2022-11-27T20:24:15.036Z,53.55
2022-11-27T20:26:43.511Z,57.53
2022-11-27T20:29:15.811Z,52.17
2022-11-27T20:31:45.023Z,55.80
2022-11-27T20:34:19.917Z,54.37
2022-11-27T20:36:49.067Z,47.58
2022-11-27T20:39:21.302Z,47.95
2022-11-27T20:41:51.793Z,46.50
2022-11-27T20:44:19.807Z,49.40
2022-11-27T20:46:47.591Z,76.28
2022-11-27T20:49:16.315Z,57.92
2022-11-27T20:51:45.027Z,43.28
2022-11-27T20:54:12.791Z,60.95
2022-11-27T20:56:43.251Z,52.10
2022-11-27T20:59:12.518Z,35.45
2022-11-27T21:01:41.684Z,62.35
2022-11-27T21:04:20.739Z,36.75
2022-11-27T21:06:48.925Z,55.75
2022-11-27T21:09:17.510Z,43.97
2022-11-27T21:11:45.569Z,41.95
2022-11-27T21:14:15.095Z,40.88
2022-11-27T21:16:48.642Z,35.38
2022-11-27T21:19:25.553Z,45.53
2022-11-27T21:21:56.436Z,40.17
2022-11-27T21:24:27.392Z,39.38
2022-11-27T21:26:56.378Z,35.97
2022-11-27T21:29:27.471Z,49.38
2022-11-27T21:31:57.067Z,54.35
2022-11-27T21:34:25.582Z,54.05
2022-11-27T21:36:53.331Z,49.70
2022-11-27T21:39:22.009Z,60.70
2022-11-27T21:41:51.649Z,53.78
2022-11-27T21:44:23.640Z,45.85
2022-11-27T21:46:51.897Z,59.50
2022-11-27T21:49:20.700Z,67.65
2022-11-27T21:51:53.930Z,45.42
2022-11-27T21:54:28.549Z,47.88
2022-11-27T21:56:57.375Z,47.47
2022-11-27T21:59:25.303Z,56.08
2022-11-27T22:01:53.421Z,58.83
2022-11-27T22:04:21.406Z,75.43
2022-11-27T22:06:51.178Z,53.97
2022-11-27T22:09:19.579Z,50.28
2022-11-27T22:11:47.630Z,52.30
2022-11-27T22:14:16.618Z,58.30
2022-11-27T22:16:46.575Z,54.10
2022-11-27T22:19:16.464Z,60.30
2022-11-27T22:21:45.602Z,57.72
2022-11-27T22:24:19.049Z,60.78
2022-11-27T22:26:51.414Z,52.40
2022-11-27T22:29:19.272Z,64.13
2022-11-27T22:31:47.445Z,83.07
2022-11-27T22:34:16.747Z,58.83
2022-11-27T22:36:46.081Z,65.72
2022-11-27T22:39:15.545Z,54.47
2022-11-27T22:41:45.083Z,66.90
2022-11-27T22:44:21.249Z,70.47
2022-11-27T22:46:50.705Z,57.45
2022-11-27T22:49:19.144Z,39.80
2022-11-27T22:51:47.218Z,49.33
2022-11-27T22:54:24.012Z,59.72
2022-11-27T22:56:53.165Z,50.60
2022-11-27T22:59:32.211Z,55.80
2022-11-27T23:02:02.667Z,61.42
2022-11-27T23:04:30.466Z,48.13
2022-11-27T23:06:58.954Z,45.72
2022-11-27T23:09:26.802Z,58.25
2022-11-27T23:11:56.453Z,65.70
2022-11-27T23:14:25.670Z,48.60
2022-11-27T23:16:53.306Z,56.42
2022-11-27T23:19:21.192Z,59.35
2022-11-27T23:21:48.790Z,57.38
2022-11-27T23:24:16.520Z,46.30
2022-11-27T23:26:46.017Z,50.17
2022-11-27T23:29:14.433Z,56.15
2022-11-27T23:31:45.171Z,49.65
2022-11-27T23:34:16.171Z,51.85
2022-11-27T23:36:44.218Z,54.13
2022-11-27T23:39:13.300Z,77.35
2022-11-27T23:41:41.285Z,51.40
2022-11-27T23:44:09.005Z,62.97
2022-11-27T23:46:36.639Z,56.90
2022-11-27T23:49:04.117Z,67.07
2022-11-27T23:51:32.680Z,70.07
2022-11-27T23:54:01.326Z,62.60
2022-11-27T23:56:31.538Z,58.22
2022-11-27T23:59:00.002Z,58.17
